createdAt,value
2017-12-14T00:02:23.746Z,2.90
2017-12-14T00:04:56.898Z,2.80
2017-12-14T00:07:27.931Z,2.80
2017-12-14T00:10:07.189Z,2.70
2017-12-14T00:12:42.319Z,2.60
2017-12-14T00:15:11.765Z,2.70
2017-12-14T00:17:41.826Z,2.50
2017-12-14T00:31:01.023Z,2.20
2017-12-14T00:33:35.944Z,2.50
2017-12-14T00:39:28.875Z,2.50
2017-12-14T00:42:03.977Z,2.50
2017-12-14T00:44:36.181Z,2.40
2017-12-14T00:47:14.242Z,2.30
2017-12-14T00:49:52.891Z,2.20
2017-12-14T01:05:33.525Z,2.30
2017-12-14T01:08:02.683Z,2.50
2017-12-14T01:10:36.143Z,2.50
2017-12-14T01:13:09.160Z,2.40
2017-12-14T01:15:42.597Z,2.70
2017-12-14T01:18:14.840Z,2.70
2017-12-14T01:34:14.470Z,2.90
2017-12-14T01:50:17.182Z,3.10
2017-12-14T01:56:20.469Z,3.20
2017-12-14T01:58:53.788Z,3.20
2017-12-14T02:01:23.019Z,3.30
2017-12-14T02:03:52.094Z,3.30
2017-12-14T02:06:23.126Z,3.30
2017-12-14T02:08:56.385Z,3.30
2017-12-14T02:11:28.147Z,3.40
2017-12-14T02:14:02.831Z,3.50
2017-12-14T02:16:37.717Z,3.60
2017-12-14T02:19:17.269Z,3.70
2017-12-14T02:31:53.682Z,3.50
2017-12-14T02:34:27.775Z,3.50
2017-12-14T02:40:42.091Z,3.90
2017-12-14T02:43:15.977Z,3.90
2017-12-14T02:45:48.872Z,3.90
2017-12-14T02:48:24.383Z,3.90
2017-12-14T02:51:01.026Z,4.00
2017-12-14T02:53:35.829Z,3.90
2017-12-14T02:56:09.206Z,4.20
2017-12-14T02:58:43.022Z,4.00
2017-12-14T03:01:17.129Z,4.00
2017-12-14T03:03:51.903Z,4.00
2017-12-14T03:06:27.105Z,3.90
2017-12-14T03:09:07.038Z,3.90
2017-12-14T03:11:45.380Z,3.90
2017-12-14T03:14:17.006Z,3.90
2017-12-14T03:16:52.953Z,3.90
2017-12-14T03:19:27.212Z,3.80
2017-12-14T03:22:04.419Z,3.80
2017-12-14T03:24:48.624Z,3.80
2017-12-14T03:27:25.699Z,3.80
2017-12-14T03:30:00.405Z,3.80
2017-12-14T03:32:32.380Z,3.70
2017-12-14T03:35:11.008Z,3.80
2017-12-14T03:38:12.360Z,3.80
2017-12-14T03:40:46.665Z,3.90
2017-12-14T03:43:23.893Z,3.80
2017-12-14T03:46:02.897Z,3.90
2017-12-14T03:48:38.790Z,4.00
2017-12-14T03:51:24.521Z,4.00
2017-12-14T03:53:55.146Z,4.10
2017-12-14T03:56:24.687Z,4.00
2017-12-14T03:58:54.810Z,4.00
2017-12-14T04:01:34.464Z,4.00
2017-12-14T04:04:09.814Z,4.10
2017-12-14T04:06:40.855Z,4.00
2017-12-14T04:09:36.375Z,4.00
2017-12-14T04:12:05.327Z,4.20
2017-12-14T04:14:37.811Z,4.20
2017-12-14T04:17:10.112Z,4.30
2017-12-14T04:19:42.271Z,4.30
2017-12-14T04:22:18.141Z,4.30
2017-12-14T04:41:40.825Z,4.00
2017-12-14T04:44:13.322Z,3.90
2017-12-14T04:46:46.778Z,4.00
2017-12-14T04:49:21.251Z,3.90
2017-12-14T04:51:51.599Z,3.80
2017-12-14T04:54:25.888Z,3.80
2017-12-14T04:56:55.693Z,3.80
2017-12-14T04:59:33.251Z,3.80
2017-12-14T05:02:15.062Z,3.80
2017-12-14T05:04:48.834Z,3.70
2017-12-14T05:07:21.814Z,3.80
2017-12-14T05:20:13.612Z,3.80
2017-12-14T05:23:05.920Z,3.70
2017-12-14T05:26:19.853Z,3.70
2017-12-14T05:28:55.491Z,3.60
2017-12-14T05:31:34.653Z,3.60
2017-12-14T05:34:08.948Z,3.60
2017-12-14T05:36:47.248Z,3.60
2017-12-14T05:46:43.457Z,3.50
2017-12-14T05:49:16.651Z,3.60
2017-12-14T05:51:47.738Z,3.50
2017-12-14T05:54:55.245Z,3.40
2017-12-14T05:57:26.813Z,3.30
2017-12-14T06:00:00.333Z,3.40
2017-12-14T06:02:40.039Z,3.40
2017-12-14T06:05:13.415Z,3.50
2017-12-14T06:07:50.920Z,3.40
2017-12-14T06:16:51.629Z,3.40
2017-12-14T06:19:25.306Z,3.40
2017-12-14T06:21:55.058Z,3.40
2017-12-14T06:24:24.311Z,3.40
2017-12-14T06:26:54.158Z,3.50
2017-12-14T06:29:24.381Z,3.40
2017-12-14T06:31:56.753Z,3.40
2017-12-14T06:34:26.833Z,3.40
2017-12-14T06:37:02.754Z,3.40
2017-12-14T06:39:32.693Z,3.40
2017-12-14T06:42:11.116Z,3.30
2017-12-14T06:44:48.823Z,3.20
2017-12-14T06:47:21.053Z,3.40
2017-12-14T06:49:54.359Z,3.30
2017-12-14T06:52:27.822Z,3.40
2017-12-14T06:55:01.946Z,3.30
2017-12-14T07:27:29.864Z,3.40
2017-12-14T07:30:02.717Z,3.30
2017-12-14T07:32:34.394Z,3.30
2017-12-14T07:35:46.303Z,3.20
2017-12-14T07:38:17.396Z,3.20
2017-12-14T07:41:16.126Z,3.30
2017-12-14T07:44:01.451Z,3.30
2017-12-14T07:46:36.510Z,3.30
2017-12-14T07:49:22.216Z,3.40
2017-12-14T07:51:59.442Z,3.40
2017-12-14T07:54:29.061Z,3.50
2017-12-14T07:57:43.351Z,3.60
2017-12-14T08:00:15.354Z,3.50
2017-12-14T08:02:46.752Z,3.50
2017-12-14T08:05:21.022Z,3.50
2017-12-14T08:07:56.782Z,3.50
2017-12-14T08:10:29.582Z,3.50
2017-12-14T08:13:26.497Z,3.50
2017-12-14T08:15:59.774Z,3.40
2017-12-14T08:18:31.979Z,3.50
2017-12-14T08:21:13.507Z,3.40
2017-12-14T08:23:45.320Z,3.40
2017-12-14T08:26:24.293Z,3.50
2017-12-14T08:35:47.892Z,3.40
2017-12-14T08:38:21.183Z,3.50
2017-12-14T08:40:56.398Z,3.50
2017-12-14T08:47:27.528Z,3.50
2017-12-14T08:49:58.937Z,3.40
2017-12-14T08:52:31.607Z,3.40
2017-12-14T08:55:03.281Z,3.40
2017-12-14T08:57:40.777Z,3.30
2017-12-14T09:00:16.884Z,3.40
2017-12-14T09:02:51.152Z,3.40
2017-12-14T09:05:32.635Z,3.30
2017-12-14T09:08:02.681Z,3.30
2017-12-14T09:10:33.141Z,3.30
2017-12-14T09:13:12.046Z,3.40
2017-12-14T09:15:46.084Z,3.50
2017-12-14T09:18:24.801Z,3.50
2017-12-14T09:20:56.830Z,3.50
2017-12-14T09:23:26.703Z,3.50
2017-12-14T09:25:58.002Z,3.50
2017-12-14T09:28:37.592Z,3.50
2017-12-14T09:31:10.262Z,3.50
2017-12-14T09:33:43.883Z,3.50
2017-12-14T09:36:21.062Z,3.60
2017-12-14T09:38:55.680Z,3.40
2017-12-14T09:41:33.337Z,3.50
2017-12-14T09:44:28.484Z,3.60
2017-12-14T09:47:04.641Z,3.60
2017-12-14T09:49:36.357Z,3.60
2017-12-14T09:52:06.302Z,3.50
2017-12-14T09:54:38.430Z,3.60
2017-12-14T09:57:07.704Z,3.60
2017-12-14T09:59:42.942Z,3.60
2017-12-14T10:02:15.394Z,3.60
2017-12-14T10:04:45.996Z,3.60
2017-12-14T10:07:19.106Z,3.60
2017-12-14T10:09:53.381Z,3.60
2017-12-14T10:12:22.356Z,3.70
2017-12-14T10:14:55.967Z,3.70
2017-12-14T10:17:25.153Z,3.80
2017-12-14T10:19:55.152Z,3.90
2017-12-14T10:22:27.041Z,4.10
2017-12-14T10:25:01.503Z,4.20
2017-12-14T10:27:33.970Z,4.20
2017-12-14T10:30:08.965Z,4.20
2017-12-14T10:32:41.938Z,4.10
2017-12-14T10:35:16.021Z,4.20
2017-12-14T10:37:51.522Z,4.10
2017-12-14T10:40:28.248Z,4.30
2017-12-14T10:43:00.939Z,4.30
2017-12-14T10:49:36.162Z,4.50
2017-12-14T10:52:10.012Z,4.80
2017-12-14T10:54:45.490Z,5.00
2017-12-14T10:57:19.540Z,5.10
2017-12-14T10:59:52.799Z,5.20
2017-12-14T11:02:27.308Z,5.10
2017-12-14T11:04:56.923Z,5.10
2017-12-14T11:07:26.829Z,5.10
2017-12-14T11:10:08.024Z,5.10
2017-12-14T11:12:43.899Z,5.10
2017-12-14T11:15:19.563Z,5.10
2017-12-14T11:17:52.435Z,5.10
2017-12-14T11:20:33.055Z,5.10
2017-12-14T11:23:09.772Z,5.00
2017-12-14T11:25:43.675Z,5.00
2017-12-14T11:28:18.277Z,5.00
2017-12-14T11:34:14.620Z,5.00
2017-12-14T11:36:45.110Z,4.90
2017-12-14T11:39:18.214Z,4.90
2017-12-14T11:41:48.585Z,4.90
2017-12-14T11:44:22.865Z,4.90
2017-12-14T11:53:57.865Z,4.80
2017-12-14T11:56:28.418Z,4.90
2017-12-14T11:58:59.327Z,4.90
2017-12-14T12:01:31.279Z,4.90
2017-12-14T12:04:05.901Z,4.90
2017-12-14T12:06:39.733Z,4.80
2017-12-14T12:09:15.865Z,4.70
2017-12-14T12:11:50.161Z,4.70
2017-12-14T12:14:28.098Z,4.60
2017-12-14T12:20:33.811Z,4.80
2017-12-14T12:23:06.007Z,4.90
2017-12-14T12:25:43.992Z,5.00
2017-12-14T12:28:22.230Z,5.00
2017-12-14T12:30:56.608Z,5.00
2017-12-14T12:33:35.396Z,5.00
2017-12-14T12:36:09.648Z,5.20
2017-12-14T12:38:55.805Z,5.20
2017-12-14T12:41:28.172Z,5.30
2017-12-14T12:44:03.187Z,5.40
2017-12-14T12:47:10.821Z,5.50
2017-12-14T12:49:43.193Z,5.70
2017-12-14T12:52:18.941Z,5.80
2017-12-14T12:54:51.292Z,5.70
2017-12-14T12:57:26.068Z,5.80
2017-12-14T13:00:02.458Z,5.80
2017-12-14T13:02:37.405Z,5.80
2017-12-14T13:05:11.735Z,6.00
2017-12-14T13:07:45.936Z,6.20
2017-12-14T13:10:19.798Z,6.20
2017-12-14T13:12:56.994Z,6.10
2017-12-14T13:15:30.851Z,6.10
2017-12-14T13:18:41.654Z,5.90
2017-12-14T13:21:33.606Z,5.90
2017-12-14T13:24:04.903Z,5.80
2017-12-14T13:26:37.073Z,5.70
2017-12-14T13:29:06.016Z,5.70
2017-12-14T13:35:13.785Z,5.60
2017-12-14T13:37:47.947Z,5.60
2017-12-14T13:40:21.457Z,5.50
2017-12-14T13:42:57.913Z,5.50
2017-12-14T13:45:29.684Z,5.40
2017-12-14T13:48:21.225Z,5.40
2017-12-14T13:50:50.720Z,5.30
2017-12-14T13:53:23.994Z,5.30
2017-12-14T13:55:55.248Z,5.30
2017-12-14T13:58:26.423Z,5.10
2017-12-14T14:00:58.576Z,5.00
2017-12-14T14:03:31.539Z,4.90
2017-12-14T14:06:05.479Z,4.80
2017-12-14T14:08:36.859Z,4.90
2017-12-14T14:11:10.029Z,4.90
2017-12-14T14:13:42.926Z,4.80
2017-12-14T14:16:16.407Z,4.80
2017-12-14T14:18:47.991Z,4.80
2017-12-14T14:21:17.701Z,4.80
2017-12-14T14:23:49.853Z,4.80
2017-12-14T14:26:24.884Z,4.70
2017-12-14T14:28:56.823Z,4.70
2017-12-14T14:31:36.957Z,4.60
2017-12-14T14:34:46.004Z,4.70
2017-12-14T14:37:16.666Z,4.60
2017-12-14T14:39:51.191Z,4.60
2017-12-14T14:42:26.240Z,4.40
2017-12-14T14:45:01.940Z,4.40
2017-12-14T14:47:35.667Z,4.30
2017-12-14T14:50:09.601Z,4.20
2017-12-14T14:52:43.754Z,4.40
2017-12-14T14:55:19.265Z,4.30
2017-12-14T14:57:54.765Z,4.30
2017-12-14T15:00:30.239Z,4.40
2017-12-14T15:03:14.874Z,4.40
2017-12-14T15:05:44.641Z,4.30
2017-12-14T15:08:16.323Z,4.20
2017-12-14T15:10:50.079Z,4.10
2017-12-14T15:13:26.599Z,3.90
2017-12-14T15:15:59.431Z,4.00
2017-12-14T15:19:00.017Z,4.00
2017-12-14T15:21:33.059Z,3.90
2017-12-14T15:24:10.720Z,3.80
2017-12-14T15:26:48.353Z,3.60
2017-12-14T15:29:27.566Z,3.70
2017-12-14T15:32:00.340Z,3.50
2017-12-14T15:34:34.363Z,3.50
2017-12-14T15:37:09.755Z,3.50
2017-12-14T15:39:41.302Z,3.50
2017-12-14T15:42:18.030Z,3.40
2017-12-14T15:44:53.538Z,3.40
2017-12-14T15:47:29.102Z,3.10
2017-12-14T15:50:04.584Z,3.10
2017-12-14T15:52:39.427Z,2.90
2017-12-14T15:55:13.402Z,2.80
2017-12-14T15:57:47.489Z,2.60
2017-12-14T16:00:24.989Z,2.60
2017-12-14T16:02:56.442Z,2.50
2017-12-14T16:06:06.545Z,2.60
2017-12-14T16:08:39.846Z,2.60
2017-12-14T16:11:16.240Z,2.60
2017-12-14T16:13:48.989Z,2.60
2017-12-14T16:16:24.954Z,2.70
2017-12-14T16:18:58.871Z,2.80
2017-12-14T16:21:31.670Z,2.90
2017-12-14T16:24:06.125Z,2.80
2017-12-14T16:26:42.919Z,2.80
2017-12-14T16:29:18.231Z,2.80
2017-12-14T16:31:53.076Z,2.80
2017-12-14T16:34:29.444Z,2.70
2017-12-14T16:37:05.194Z,2.60
2017-12-14T16:39:39.159Z,2.30
2017-12-14T16:42:13.371Z,2.10
2017-12-14T16:44:55.469Z,2.00
2017-12-14T16:47:24.659Z,2.10
2017-12-14T17:00:06.821Z,1.50
2017-12-14T17:02:37.479Z,1.60
2017-12-14T17:05:56.371Z,1.50
2017-12-14T17:08:29.544Z,1.40
2017-12-14T17:10:59.892Z,1.20
2017-12-14T17:13:30.293Z,1.20
2017-12-14T17:16:02.789Z,1.30
2017-12-14T17:18:36.303Z,1.40
2017-12-14T17:21:29.095Z,1.40
2017-12-14T17:24:01.954Z,1.60
2017-12-14T17:26:40.445Z,1.70
2017-12-14T17:29:14.053Z,1.90
2017-12-14T17:31:49.281Z,1.80
2017-12-14T17:34:21.489Z,1.80
2017-12-14T17:43:55.031Z,1.90
2017-12-14T17:46:24.531Z,1.90
2017-12-14T17:48:53.500Z,1.90
2017-12-14T17:51:34.775Z,2.00
2017-12-14T17:54:07.037Z,2.10
2017-12-14T17:56:40.530Z,2.00
2017-12-14T17:59:15.022Z,1.90
2017-12-14T18:01:50.382Z,2.00
2017-12-14T18:04:24.027Z,2.00
2017-12-14T18:07:20.929Z,2.00
2017-12-14T18:09:51.892Z,1.90
2017-12-14T18:12:23.102Z,1.90
2017-12-14T18:14:56.040Z,1.90
2017-12-14T18:17:33.172Z,1.90
2017-12-14T18:20:06.479Z,1.80
2017-12-14T18:29:44.958Z,1.60
2017-12-14T18:32:15.195Z,1.60
2017-12-14T18:34:45.316Z,1.60
2017-12-14T18:44:06.632Z,1.80
2017-12-14T18:46:56.795Z,1.70
2017-12-14T18:49:31.730Z,1.60
2017-12-14T18:52:44.813Z,1.60
2017-12-14T18:55:24.016Z,1.60
2017-12-14T18:58:02.255Z,1.50
2017-12-14T19:00:37.211Z,1.60
2017-12-14T19:03:10.821Z,1.60
2017-12-14T19:05:44.949Z,1.50
2017-12-14T19:14:59.159Z,2.00
2017-12-14T19:17:35.624Z,2.10
2017-12-14T19:20:07.487Z,2.20
2017-12-14T19:22:44.994Z,2.20
2017-12-14T19:25:21.405Z,2.20
2017-12-14T19:27:54.310Z,2.20
2017-12-14T19:30:31.302Z,2.10
2017-12-14T19:33:05.813Z,2.10
2017-12-14T19:35:39.170Z,2.10
2017-12-14T19:38:08.827Z,2.10
2017-12-14T19:40:44.592Z,2.00
2017-12-14T19:43:17.925Z,2.00
2017-12-14T19:45:49.404Z,2.00
2017-12-14T19:48:18.202Z,1.90
2017-12-14T19:50:50.457Z,1.90
2017-12-14T20:07:28.342Z,1.80
2017-12-14T20:10:04.109Z,1.90
2017-12-14T20:12:39.350Z,1.80
2017-12-14T20:15:14.408Z,1.70
2017-12-14T20:17:45.617Z,1.70
2017-12-14T20:20:17.282Z,1.70
2017-12-14T20:26:08.367Z,1.80
2017-12-14T20:28:37.907Z,1.60
2017-12-14T20:31:07.878Z,1.60
2017-12-14T20:33:37.465Z,1.70
2017-12-14T20:36:06.739Z,1.70
2017-12-14T20:38:38.799Z,1.60
2017-12-14T20:41:08.979Z,1.40
2017-12-14T20:43:42.457Z,1.20
2017-12-14T20:46:16.137Z,1.10
2017-12-14T20:48:55.465Z,0.90
2017-12-14T20:51:27.532Z,0.80
2017-12-14T20:53:58.614Z,0.70
2017-12-14T20:56:27.247Z,0.80
2017-12-14T20:59:00.294Z,0.70
2017-12-14T21:01:29.590Z,0.60
2017-12-14T21:04:00.508Z,0.60
2017-12-14T21:06:32.096Z,0.60
2017-12-14T21:09:17.238Z,0.80
2017-12-14T21:11:49.590Z,0.80
2017-12-14T21:14:18.911Z,0.80
2017-12-14T21:16:49.839Z,1.10
2017-12-14T21:19:20.738Z,1.50
2017-12-14T21:21:49.757Z,1.50
2017-12-14T21:28:22.079Z,1.60
2017-12-14T21:30:51.798Z,1.70
2017-12-14T21:33:22.025Z,1.60
2017-12-14T21:35:53.164Z,1.50
2017-12-14T21:38:22.320Z,1.50
2017-12-14T21:40:51.942Z,1.60
2017-12-14T21:43:20.670Z,1.60
2017-12-14T21:45:52.265Z,1.60
2017-12-14T21:48:21.142Z,1.60
2017-12-14T21:50:52.535Z,1.80
2017-12-14T21:53:22.581Z,1.80
2017-12-14T21:55:53.863Z,1.70
2017-12-14T21:58:23.670Z,1.60
2017-12-14T22:00:53.583Z,1.50
2017-12-14T22:03:23.670Z,1.40
2017-12-14T22:05:54.086Z,1.30
2017-12-14T22:08:27.785Z,1.40
2017-12-14T22:10:58.933Z,1.40
2017-12-14T22:13:30.066Z,1.50
2017-12-14T22:16:01.504Z,1.60
2017-12-14T22:18:35.605Z,1.80
2017-12-14T22:21:07.865Z,1.80
2017-12-14T22:27:21.797Z,2.10
2017-12-14T22:32:56.765Z,2.10
2017-12-14T22:35:28.629Z,2.10
2017-12-14T22:38:00.099Z,2.00
2017-12-14T22:51:04.870Z,2.30
2017-12-14T22:53:36.211Z,2.30
2017-12-14T22:56:10.551Z,2.40
2017-12-14T22:58:50.272Z,2.40
2017-12-14T23:01:22.503Z,2.40
2017-12-14T23:03:53.810Z,2.40
2017-12-14T23:06:26.169Z,2.30
2017-12-14T23:08:57.091Z,2.30
2017-12-14T23:11:55.947Z,2.30
2017-12-14T23:14:27.920Z,2.20
2017-12-14T23:17:00.941Z,2.10
2017-12-14T23:19:32.333Z,2.20
2017-12-14T23:22:02.887Z,2.10
2017-12-14T23:24:32.281Z,2.20
2017-12-14T23:27:29.062Z,2.10
2017-12-14T23:30:02.560Z,2.10
2017-12-14T23:32:35.045Z,2.00
2017-12-14T23:35:07.335Z,2.20
2017-12-14T23:37:40.237Z,2.10
2017-12-14T23:40:16.693Z,2.10
2017-12-14T23:42:51.040Z,2.10
2017-12-14T23:45:26.803Z,2.20
2017-12-14T23:48:01.044Z,2.00
2017-12-14T23:50:35.125Z,1.80
2017-12-14T23:53:10.067Z,1.70
2017-12-14T23:55:42.935Z,1.60
2017-12-14T23:58:15.245Z,1.70
